Latest Weather Observations for Mudgee

IDN60801

Issued at 10:04 am EDT Monday 2 March 2015 (issued every 30 minutes, with the page automatically refreshed every 10 minutes)

About weather observations | Map of weather stations | Latest weather observations for NSW | Other Formats
Station Details ID: 062101 Name: MUDGEE AIRPORT AWS Lat: -32.56 Lon: 149.61 Height: 471.0 m
Data from the previous 72 hours. | See also: Recent months at Mudgee
Date/Time
EDT
Temp
°C
App
Temp
°C
Dew
Point
Rel
Hum
%
Delta-T
°C
Wind Press
QNH
hPa
Press
MSL
hPa
Rain
since 9 am
mm
Dir
 
Spd
km/h
Gust
km/h
Spd
kts
Gust
kts
02/10:00am 20.4 17.4 12.6 61 4.5 SE 20 32 11 17 1018.6 1016.9 0.0
02/09:30am 19.3 16.2 12.1 63 4.1 SE 20 30 11 16 1018.5 1016.8 0.0
02/09:00am 18.8 15.7 12.1 65 3.8 SE 20 33 11 18 1018.5 1016.8 7.0
02/08:30am 17.9 14.6 11.5 66 3.6 SE 20 30 11 16 1018.3 1016.6 7.0
02/08:00am 17.4 14.4 11.9 70 3.1 SE 19 32 10 17 1018.0 1016.2 7.0
02/07:30am 17.1 14.4 11.8 71 3.0 SE 17 30 9 16 1017.9 1016.1 7.0
02/07:00am 16.8 13.7 11.5 71 2.9 SE 19 37 10 20 1017.5 1015.7 7.0
02/06:30am 16.8 14.0 11.3 70 3.0 ESE 17 28 9 15 1017.2 1015.4 7.0
02/06:00am 17.0 13.6 11.3 69 3.2 SE 20 30 11 16 1017.0 1015.3 7.0
02/05:30am 17.2 13.9 11.5 69 3.2 SE 20 32 11 17 1016.7 1015.0 7.0
02/05:00am 17.4 14.2 11.2 67 3.4 ESE 19 32 10 17 1016.5 1014.8 7.0
02/04:50am 17.4 14.0 11.2 67 3.4 SE 20 35 11 19 1016.5 1014.8 7.0
02/04:30am 17.4 14.3 12.1 71 3.0 SE 20 32 11 17 1016.5 1014.8 7.0
02/04:00am 17.5 15.4 12.4 72 2.9 ESE 15 24 8 13 1016.2 1014.4 7.0
02/03:31am 17.5 14.6 12.2 71 3.0 SE 19 28 10 15 1015.9 1014.1 7.0
02/03:30am 17.6 14.5 12.3 71 3.0 SE 20 32 11 17 1015.9 1014.1 7.0
02/03:00am 17.6 14.6 12.1 70 3.1 ESE 19 33 10 18 1015.9 1014.1 7.0
02/02:30am 17.5 14.5 12.0 70 3.1 SE 19 41 10 22 1015.9 1014.1 7.0
02/02:02am 17.5 15.0 12.2 71 3.0 SE 17 30 9 16 1016.1 1014.3 7.0
02/02:00am 17.6 15.1 12.3 71 3.0 SE 17 30 9 16 1016.1 1014.3 7.0
02/01:30am 17.8 15.0 12.7 72 2.9 SE 19 30 10 16 1016.1 1014.3 7.0
02/01:00am 18.4 15.8 13.9 75 2.6 SSE 20 35 11 19 1015.8 1014.0 7.0
02/12:30am 18.6 16.4 14.3 76 2.5 SE 19 37 10 20 1015.7 1013.9 7.0
02/12:00am 19.1 15.3 14.6 75 2.7 SE 28 48 15 26 1015.2 1013.4 7.0
 
Date/Time
EDT
Temp
°C
App
Temp
°C
Dew
Point
Rel
Hum
%
Delta-T
°C
Wind Press
QNH
hPa
Press
MSL
hPa
Rain
since 9 am
mm
Dir
 
Spd
km/h
Gust
km/h
Spd
kts
Gust
kts
01/11:56pm 19.1 15.2 14.4 74 2.8 SE 28 48 15 26 1015.1 1013.3 7.0
01/11:30pm 20.0 17.2 15.4 75 2.8 SE 24 39 13 21 1015.0 1013.2 7.0
01/11:02pm 21.1 17.6 15.6 71 3.3 SE 28 46 15 25 1014.7 1013.0 7.0
01/11:00pm 21.1 18.1 15.9 72 3.2 SE 26 41 14 22 1014.6 1012.9 7.0
01/10:30pm 22.2 22.0 17.6 75 2.9 SE 15 20 8 11 1014.2 1012.4 7.0
01/10:00pm 23.0 23.5 18.3 75 3.0 SE 13 22 7 12 1013.6 1011.8 7.0
01/09:30pm 21.4 23.5 19.3 88 1.4 NE 7 13 4 7 1012.5 1010.7 7.0
01/09:00pm 22.1 25.0 19.1 83 1.9 ENE 2 9 1 5 1012.0 1010.2 7.0
01/08:30pm 23.2 25.5 17.6 71 3.5 SSE 2 7 1 4 1011.2 1009.4 7.0
01/08:00pm 23.7 24.9 17.4 68 4.0 SSE 7 9 4 5 1010.4 1008.5 7.0
01/07:30pm 24.3 26.1 18.2 68 3.9 S 6 11 3 6 1009.7 1007.9 7.0
01/07:00pm 25.2 26.6 17.9 64 4.7 NNE 7 11 4 6 1009.1 1007.3 7.0
01/06:30pm 25.6 27.6 17.8 62 5.0 N 4 7 2 4 1008.7 1006.8 7.0
01/06:00pm 24.3 26.2 18.5 70 3.7 SE 6 17 3 9 1008.4 1006.5 7.0
01/05:30pm 23.5 26.0 19.8 80 2.4 ESE 6 9 3 5 1007.4 1005.6 7.0
01/05:08pm 21.1 16.6 19.0 88 1.3 SSW 41 72 22 39 1008.0 1006.2 7.0
01/05:04pm 20.0 11.9 18.7 92 0.8 SW 59 89 32 48 1009.2 1007.4 6.4
01/05:03pm 19.1 10.1 18.3 95 0.5 SW 63 89 34 48 1009.6 1007.8 6.0
01/05:00pm 18.2 8.8 17.4 95 0.5 SW 63 89 34 48 1009.9 1008.1 4.6
01/04:59pm 18.3 9.1 17.1 93 0.7 SW 61 89 33 48 1009.7 1007.9 4.2
01/04:56pm 18.5 9.8 15.9 85 1.6 SW 56 82 30 44 1009.2 1007.4 2.0
01/04:49pm 23.4 15.2 14.1 56 5.6 WSW 50 89 27 48 1008.5 1006.6 0.0
01/04:48pm 24.1 16.7 14.2 54 6.0 WSW 46 89 25 48 1008.6 1006.7 0.0
01/04:46pm 24.9 17.7 13.1 48 7.0 W 43 89 23 48 1008.8 1006.9 0.0
01/04:45pm 26.9 21.0 13.6 44 8.0 W 37 89 20 48 1008.2 1006.3 0.0
01/04:43pm 28.9 24.6 13.2 38 9.5 WNW 28 89 15 48 1007.4 1005.6 0.0
01/04:42pm 30.8 27.4 13.6 35 10.5 WNW 24 61 13 33 1007.2 1005.4 0.0
01/04:30pm 32.6 28.3 13.3 31 11.8 WNW 28 39 15 21 1006.3 1004.4 0.0
01/04:00pm 35.7 32.3 13.8 27 13.7 WNW 24 43 13 23 1006.3 1004.4 0.0
01/03:30pm 34.6 32.2 14.5 30 12.6 W 20 30 11 16 1006.8 1004.9 0.0
01/03:00pm 35.5 32.9 15.8 31 12.7 WNW 24 43 13 23 1007.3 1005.5 0.0
01/02:30pm 34.4 30.8 14.3 30 12.6 NW 26 37 14 20 1007.6 1005.8 0.0
01/02:00pm 34.6 31.7 15.0 31 12.4 WNW 24 35 13 19 1008.2 1006.3 0.0
01/01:30pm 33.5 31.3 15.0 32 11.7 WNW 20 32 11 17 1008.7 1006.8 0.0
01/01:00pm 32.3 30.9 17.0 40 9.9 NW 20 32 11 17 1009.4 1007.6 0.0
01/12:30pm 32.4 30.6 17.8 41 9.5 WNW 24 33 13 18 1009.7 1007.9 0.0
01/12:00pm 31.2 30.2 17.9 45 8.7 NW 20 32 11 17 1010.0 1008.2 0.0
01/11:30am 30.2 29.4 18.0 48 7.9 NNW 19 28 10 15 1010.4 1008.5 0.0
01/11:00am 29.8 29.3 18.6 51 7.4 NNW 19 24 10 13 1010.6 1008.7 0.0
01/10:30am 28.3 27.8 17.8 53 6.8 NNW 17 24 9 13 1010.6 1008.2 0.0
01/10:00am 27.0 27.8 17.2 55 6.3 NW 9 15 5 8 1010.7 1008.3 0.0
01/09:30am 25.1 25.4 16.0 57 5.7 NNW 9 13 5 7 1010.8 1008.4 0.0
01/09:00am 23.4 24.8 14.4 57 5.4 CALM 0 0 0 0 1010.7 1008.3 0.0
01/08:30am 20.6 21.6 13.3 63 4.3 CALM 0 0 0 0 1010.6 1008.2 0.0
01/08:00am 18.3 19.2 13.0 71 3.1 CALM 0 0 0 0 1010.5 1008.1 0.0
01/07:30am 17.4 17.6 13.1 76 2.5 SE 4 6 2 3 1010.2 1007.8 0.0
01/07:00am 16.1 17.0 13.0 82 1.8 CALM 0 0 0 0 1009.9 1007.5 0.0
01/06:30am 16.2 17.1 12.9 81 1.9 CALM 0 0 0 0 1009.6 1007.2 0.0
01/06:00am 16.5 17.4 12.8 79 2.1 CALM 0 0 0 0 1009.2 1006.8 0.0
01/05:30am 16.7 16.4 12.7 77 2.3 NNE 6 7 3 4 1009.0 1006.6 0.0
01/05:00am 17.4 18.2 12.5 73 2.8 CALM 0 0 0 0 1008.8 1006.4 0.0
01/04:30am 17.3 18.2 12.8 75 2.6 CALM 0 0 0 0 1008.8 1006.4 0.0
01/04:00am 17.3 16.5 12.8 75 2.6 NNE 9 11 5 6 1008.8 1006.4 0.0
01/03:30am 18.0 18.7 12.2 69 3.3 CALM 0 6 0 3 1008.8 1006.4 0.0
01/03:00am 19.1 19.3 11.9 63 4.1 SE 2 7 1 4 1009.1 1006.7 0.0
01/02:30am 19.4 19.6 11.7 61 4.3 SSE 2 7 1 4 1009.3 1006.9 0.0
01/02:00am 19.8 19.0 11.8 60 4.5 SSE 7 9 4 5 1009.6 1007.2 0.0
01/01:30am 20.2 19.7 11.9 59 4.7 S 6 9 3 5 1009.9 1007.5 0.0
01/01:00am 21.8 22.2 12.6 56 5.3 SSE 2 6 1 3 1010.2 1007.8 0.0
01/12:30am 21.3 20.9 12.4 57 5.1 N 6 7 3 4 1010.5 1008.1 0.0
01/12:00am 22.1 22.4 12.1 53 5.8 NW 2 6 1 3 1010.5 1008.1 0.0
 
Date/Time
EDT
Temp
°C
App
Temp
°C
Dew
Point
Rel
Hum
%
Delta-T
°C
Wind Press
QNH
hPa
Press
MSL
hPa
Rain
since 9 am
mm
Dir
 
Spd
km/h
Gust
km/h
Spd
kts
Gust
kts
28/11:30pm 22.8 22.0 10.9 47 6.7 NNW 6 9 3 5 1010.6 1008.2 0.0
28/11:00pm 25.6 24.4 11.7 42 8.1 E 9 13 5 7 1010.6 1008.2 0.0
28/10:30pm 25.7 24.7 11.1 40 8.4 E 7 13 4 7 1010.6 1008.2 0.0
28/10:00pm 26.1 25.0 9.9 36 9.2 E 6 11 3 6 1010.6 1008.2 0.0
28/09:30pm 26.8 24.3 10.9 37 9.2 ENE 15 19 8 10 1010.2 1007.8 0.0
28/09:00pm 26.5 24.8 12.5 41 8.3 NE 13 15 7 8 1009.7 1007.3 0.0
28/08:30pm 25.6 24.0 12.8 45 7.6 NE 13 17 7 9 1009.4 1007.0 0.0
28/08:00pm 27.3 26.2 12.1 39 9.0 NNE 9 11 5 6 1009.0 1006.6 0.0
28/07:30pm 29.8 30.2 11.3 32 10.9 CALM 0 7 0 4 1008.7 1006.3 0.0
28/07:00pm 30.4 30.6 10.4 29 11.7 CALM 0 6 0 3 1008.6 1006.2 0.0
28/06:30pm 30.7 30.3 9.6 27 12.1 NNE 2 7 1 4 1008.4 1005.9 0.0
28/06:00pm 31.0 29.9 9.8 27 12.3 ENE 6 15 3 8 1008.3 1005.8 0.0
28/05:30pm 30.8 29.2 10.2 28 12.0 N 9 15 5 8 1008.3 1005.8 0.0
28/05:00pm 31.4 29.6 10.7 28 12.2 NNW 11 19 6 10 1008.4 1005.9 0.0
28/04:30pm 31.7 30.7 10.4 27 12.5 W 6 11 3 6 1008.5 1006.1 0.0
28/04:00pm 30.9 29.0 9.2 26 12.4 NE 9 26 5 14 1008.9 1006.5 0.0
28/03:30pm 31.0 28.5 9.8 27 12.2 NNE 13 19 7 10 1009.1 1006.7 0.0
28/03:00pm 30.8 29.6 11.7 31 11.4 SSE 9 15 5 8 1009.5 1007.1 0.0
28/02:30pm 30.8 29.1 11.2 30 11.6 NNW 11 20 6 11 1009.9 1007.5 0.0
28/02:00pm 30.6 27.9 8.9 26 12.4 N 13 20 7 11 1010.5 1008.1 0.0
28/01:30pm 28.7 26.0 13.0 38 9.4 NNW 19 26 10 14 1010.9 1008.5 0.0
28/01:00pm 28.0 27.6 15.3 46 7.9 N 11 20 6 11 1011.2 1008.8 0.0
28/12:30pm 28.7 29.1 17.2 49 7.4 N 11 17 6 9 1011.7 1009.3 0.0
28/12:00pm 26.6 27.0 16.2 52 6.5 N 9 13 5 7 1011.9 1009.5 0.0
28/11:30am 25.1 25.8 16.0 57 5.7 NNW 7 13 4 7 1012.4 1010.1 0.0
28/11:00am 24.6 26.1 16.6 61 5.0 SW 4 7 2 4 1012.5 1010.2 0.0
28/10:30am 22.8 24.3 16.6 68 3.9 SSW 4 7 2 4 1012.8 1010.4 0.0
28/10:00am 21.8 22.7 16.1 70 3.5 SSE 6 9 3 5 1012.8 1010.4 0.0
28/09:30am 20.8 21.6 16.4 76 2.7 SE 7 9 4 5 1012.7 1010.3 0.0
28/09:00am 19.2 20.5 17.2 88 1.2 SSE 6 7 3 4 1012.7 1010.3 0.0
28/08:30am 17.7 19.8 17.1 96 0.4 NNW 2 6 1 3 1012.5 1010.2 0.0
28/08:00am 17.4 19.0 16.9 97 0.3 ESE 4 7 2 4 1012.3 1010.0 0.0
28/07:30am 16.7 18.9 16.4 98 0.2 CALM 0 0 0 0 1012.2 1009.9 0.0
28/07:00am 16.0 17.9 15.7 98 0.2 CALM 0 0 0 0 1012.0 1009.6 0.0
28/06:30am 15.8 17.6 15.5 98 0.2 CALM 0 0 0 0 1011.7 1009.3 0.0
28/06:00am 15.3 16.8 14.7 96 0.4 CALM 0 0 0 0 1011.5 1009.1 0.0
28/05:30am 16.8 19.0 16.5 98 0.2 CALM 0 0 0 0 1011.4 1009.0 0.0
28/05:00am 16.5 17.4 16.0 97 0.3 ENE 6 9 3 5 1011.2 1008.8 0.0
28/04:30am 17.0 17.4 15.3 90 1.0 SSE 7 11 4 6 1011.1 1008.7 0.0
28/04:00am 17.2 17.3 15.4 89 1.1 S 9 11 5 6 1011.0 1008.6 0.0
28/03:30am 17.4 17.7 14.9 85 1.5 S 7 9 4 5 1011.1 1008.7 0.0
28/03:00am 17.4 17.5 14.5 83 1.7 S 7 9 4 5 1011.2 1008.8 0.0
28/02:30am 18.0 19.4 14.5 80 2.1 CALM 0 0 0 0 1011.5 1009.1 0.0
28/02:00am 18.9 19.1 14.6 76 2.6 SSE 7 9 4 5 1011.6 1009.2 0.0
28/01:30am 19.5 20.4 15.2 76 2.6 ESE 4 6 2 3 1011.7 1009.3 0.0
28/01:00am 20.5 21.9 16.5 78 2.5 SE 4 7 2 4 1011.6 1009.2 0.0
28/12:30am 20.5 22.3 16.5 78 2.5 ENE 2 9 1 5 1011.8 1009.4 0.0
28/12:00am 20.0 20.5 15.6 76 2.7 NNE 7 9 4 5 1012.1 1009.7 0.0
 
Date/Time
EDT
Temp
°C
App
Temp
°C
Dew
Point
Rel
Hum
%
Delta-T
°C
Wind Press
QNH
hPa
Press
MSL
hPa
Rain
since 9 am
mm
Dir
 
Spd
km/h
Gust
km/h
Spd
kts
Gust
kts
27/11:30pm 21.5 22.4 16.2 72 3.3 NE 6 13 3 7 1012.0 1009.6 0.0
27/11:00pm 22.6 23.3 16.2 67 4.0 ESE 7 13 4 7 1012.1 1009.7 0.0
27/10:30pm 23.0 23.1 15.6 63 4.5 ENE 9 13 5 7 1011.9 1009.5 0.0
27/10:00pm 23.0 22.9 14.0 57 5.4 NE 7 11 4 6 1011.6 1009.2 0.0
27/09:30pm 24.7 23.8 13.6 50 6.6 ENE 11 20 6 11 1011.0 1008.6 0.0
27/09:00pm 25.0 23.8 12.9 47 7.2 ENE 11 15 6 8 1010.6 1008.2 0.0
27/08:30pm 25.6 24.1 13.1 46 7.4 ENE 13 19 7 10 1009.9 1007.5 0.0
27/08:00pm 26.3 24.3 12.7 43 8.1 NE 15 20 8 11 1009.6 1007.2 0.0
27/07:30pm 27.6 26.5 12.0 38 9.2 E 9 13 5 7 1009.1 1006.7 0.0
27/07:00pm 28.7 27.5 11.7 35 10.0 ESE 9 15 5 8 1008.9 1006.5 0.0
27/06:30pm 29.0 28.2 11.1 33 10.5 ESE 6 11 3 6 1008.7 1006.3 0.0
27/06:00pm 29.0 27.8 11.6 34 10.3 E 9 13 5 7 1008.6 1006.2 0.0
27/05:30pm 29.2 26.8 11.3 33 10.5 SSE 15 24 8 13 1008.5 1006.1 0.0
27/05:00pm 29.7 28.4 11.2 31 10.9 W 9 17 5 9 1008.4 1005.9 0.0
27/04:30pm 29.4 28.2 11.5 33 10.5 SSW 9 17 5 9 1008.6 1006.2 0.0
27/04:00pm 28.7 28.5 11.7 35 10.0 NNE 4 9 2 5 1008.9 1006.5 0.0
27/03:30pm 29.1 27.4 12.5 36 9.9 NNE 13 20 7 11 1009.2 1006.8 0.0
27/03:00pm 28.3 26.5 12.2 37 9.6 NNW 13 20 7 11 1009.4 1007.0 0.0
27/02:30pm 27.0 26.0 12.3 40 8.7 ENE 9 20 5 11 1010.1 1007.7 0.0
27/02:00pm 26.7 26.0 13.1 43 8.1 NE 9 17 5 9 1010.5 1008.1 0.0
27/01:30pm 27.3 25.9 13.3 42 8.4 ENE 13 24 7 13 1010.8 1008.4 0.0
27/01:00pm 25.9 24.7 14.1 48 7.2 ENE 13 30 7 16 1011.1 1008.7 0.0
27/12:30pm 26.6 24.5 14.7 48 7.3 E 19 30 10 16 1011.4 1009.0 0.0
27/12:00pm 25.7 23.6 13.5 46 7.3 NE 17 26 9 14 1011.7 1009.3 0.0
27/11:30am 24.1 22.5 13.9 53 6.1 E 15 20 8 11 1012.1 1009.7 0.0
27/11:00am 24.0 23.4 14.7 56 5.6 E 11 20 6 11 1012.2 1009.9 0.0
27/10:30am 24.1 23.5 15.6 59 5.2 ESE 13 20 7 11 1012.2 1009.9 0.0

Other Formats:

Comma delimited format used in spreadsheet applications
http://www.bom.gov.au/fwo/IDN60801/IDN60801.94727.axf

JavaScript Object Notation format (JSON) in row-major order
http://www.bom.gov.au/fwo/IDN60801/IDN60801.94727.json